Time;durP1;ratioP1;P1;durP2;ratioP2;P2;SDS_P1;SDS_P2;PMS_P1;PMS_P2;Temp;Humidity;BMP_temperature;BMP_pressure;BME280_temperature;BME280_humidity;BME280_pressure;Samples;Min_cycle;Max_cycle;Signal;HPM_P1;HPM_P2
2021/09/07 00:01:16;;;;;;;13.98;10.90;;;15.90;99.90;;;;;;5056873;28;20313;-46
2021/09/07 00:03:42;;;;;;;17.58;11.88;;;15.90;99.90;;;;;;5045568;28;20029;-46
2021/09/07 00:06:08;;;;;;;15.80;11.38;;;15.90;99.90;;;;;;5059574;28;20047;-46
2021/09/07 00:08:33;;;;;;;14.88;10.25;;;15.90;99.90;;;;;;5055302;28;20494;-46
2021/09/07 00:10:59;;;;;;;16.95;12.38;;;15.90;99.90;;;;;;5048711;28;20044;-46
2021/09/07 00:13:25;;;;;;;15.60;11.25;;;15.80;99.90;;;;;;5048365;28;20405;-46
2021/09/07 00:15:51;;;;;;;17.55;11.55;;;15.80;99.90;;;;;;5048314;28;20029;-46
2021/09/07 00:18:16;;;;;;;14.60;10.60;;;15.80;99.90;;;;;;5041126;28;20105;-50
2021/09/07 00:20:42;;;;;;;16.70;11.10;;;15.70;99.90;;;;;;5050990;28;20021;-46
2021/09/07 00:23:07;;;;;;;14.93;9.95;;;15.70;99.90;;;;;;5067990;28;20112;-47
2021/09/07 00:25:33;;;;;;;14.23;10.52;;;15.70;99.90;;;;;;5059749;28;20071;-54
2021/09/07 00:27:58;;;;;;;17.58;10.65;;;15.60;99.90;;;;;;5064039;28;20496;-46
2021/09/07 00:30:24;;;;;;;15.38;9.95;;;15.50;99.90;;;;;;5028625;28;20017;-46
2021/09/07 00:32:49;;;;;;;17.73;9.77;;;15.50;99.90;;;;;;5028141;28;20065;-47
2021/09/07 00:35:15;;;;;;;15.68;10.15;;;15.40;99.90;;;;;;5027860;28;20457;-47
2021/09/07 00:37:42;;;;;;;14.15;10.02;;;15.30;99.90;;;;;;5026119;28;20034;-47
2021/09/07 00:40:09;;;;;;;18.70;10.40;;;15.20;99.90;;;;;;5043060;28;20086;-46
2021/09/07 00:42:36;;;;;;;13.02;9.73;;;15.20;99.90;;;;;;5043526;28;20032;-46
2021/09/07 00:45:04;;;;;;;13.65;9.55;;;15.10;99.90;;;;;;5058836;28;20021;-46
2021/09/07 00:47:29;;;;;;;12.80;9.38;;;15.10;99.90;;;;;;5070977;28;20028;-47
2021/09/07 00:49:55;;;;;;;16.25;10.52;;;15.00;99.90;;;;;;5050077;28;20029;-46
2021/09/07 00:52:21;;;;;;;13.23;9.93;;;15.00;99.90;;;;;;5031872;28;20029;-47
2021/09/07 00:54:48;;;;;;;15.05;10.02;;;14.90;99.90;;;;;;5032676;28;20075;-48
2021/09/07 00:57:14;;;;;;;14.88;10.82;;;14.90;99.90;;;;;;5062750;28;20030;-47
2021/09/07 00:59:39;;;;;;;17.55;11.70;;;14.90;99.90;;;;;;5059912;28;20021;-46
2021/09/07 01:02:06;;;;;;;16.23;10.90;;;14.80;99.90;;;;;;5031913;28;20041;-46
2021/09/07 01:04:35;;;;;;;14.20;10.77;;;14.90;99.90;;;;;;5031077;28;20525;-46
2021/09/07 01:07:02;;;;;;;14.88;11.02;;;14.80;99.90;;;;;;5060552;28;20418;-47
2021/09/07 01:09:28;;;;;;;18.20;11.35;;;14.80;99.90;;;;;;5069256;28;20100;-47
2021/09/07 01:11:53;;;;;;;17.13;12.30;;;14.80;99.90;;;;;;5051550;28;20103;-46
2021/09/07 01:14:27;;;;;;;16.13;11.02;;;14.80;99.90;;;;;;5051360;28;20040;-46
2021/09/07 01:16:53;;;;;;;18.08;11.43;;;14.90;99.90;;;;;;5051101;28;20448;-46
2021/09/07 01:19:18;;;;;;;15.75;10.45;;;14.80;99.90;;;;;;5051129;28;20147;-47
2021/09/07 01:21:44;;;;;;;16.67;11.63;;;14.80;99.90;;;;;;5032156;28;20029;-48
2021/09/07 01:24:09;;;;;;;15.65;10.63;;;14.80;99.90;;;;;;5061478;28;20123;-46
2021/09/07 01:26:35;;;;;;;16.55;10.50;;;14.70;99.90;;;;;;5070512;28;20120;-47
2021/09/07 01:29:00;;;;;;;14.60;10.50;;;14.70;99.90;;;;;;5058684;28;20490;-47
2021/09/07 01:31:26;;;;;;;15.73;10.60;;;14.70;99.90;;;;;;5056722;28;20052;-47
2021/09/07 01:33:52;;;;;;;13.60;10.95;;;14.60;99.90;;;;;;5070994;28;20025;-46
2021/09/07 01:36:17;;;;;;;14.25;10.55;;;14.60;99.90;;;;;;5070602;28;20260;-46
2021/09/07 01:38:43;;;;;;;18.23;10.93;;;14.50;99.90;;;;;;5070711;28;20025;-47
2021/09/07 01:41:08;;;;;;;19.45;10.88;;;14.50;99.90;;;;;;5056760;28;20104;-47
2021/09/07 01:43:34;;;;;;;15.10;10.55;;;14.50;99.90;;;;;;5030454;28;20037;-46
2021/09/07 01:45:59;;;;;;;16.67;11.55;;;14.40;99.90;;;;;;5029358;28;20079;-48
2021/09/07 01:48:26;;;;;;;19.48;10.70;;;14.30;99.90;;;;;;5030272;28;20033;-46
2021/09/07 01:50:52;;;;;;;15.45;10.63;;;14.30;99.90;;;;;;5032135;28;20061;-46
2021/09/07 01:53:18;;;;;;;14.13;10.02;;;14.30;99.90;;;;;;5029260;28;20025;-46
2021/09/07 01:55:44;;;;;;;15.52;11.23;;;14.30;99.90;;;;;;5030851;28;20025;-46
2021/09/07 01:58:10;;;;;;;16.63;10.95;;;14.20;99.90;;;;;;5029667;28;20403;-46
2021/09/07 02:00:36;;;;;;;17.40;10.77;;;14.20;99.90;;;;;;5054060;28;20056;-46
2021/09/07 02:03:02;;;;;;;17.45;11.23;;;14.20;99.90;;;;;;5061510;28;20049;-47
2021/09/07 02:05:28;;;;;;;15.10;10.20;;;14.20;99.90;;;;;;5029699;28;20017;-46
2021/09/07 02:07:53;;;;;;;16.58;10.65;;;14.20;99.90;;;;;;5057239;28;20091;-47
2021/09/07 02:10:20;;;;;;;15.93;11.18;;;14.20;99.90;;;;;;5070396;28;20032;-46
2021/09/07 02:12:46;;;;;;;17.88;11.43;;;14.10;99.90;;;;;;5054748;28;20511;-46
2021/09/07 02:15:12;;;;;;;16.35;10.50;;;14.20;99.90;;;;;;5050510;28;20024;-46
2021/09/07 02:17:38;;;;;;;16.38;11.85;;;14.20;99.90;;;;;;5048225;28;20021;-47
2021/09/07 02:20:05;;;;;;;15.30;10.18;;;14.20;99.90;;;;;;5050489;28;20028;-47
2021/09/07 02:22:31;;;;;;;15.23;10.80;;;14.20;99.90;;;;;;5057834;28;20058;-46
2021/09/07 02:24:56;;;;;;;15.13;10.65;;;14.20;99.90;;;;;;5069949;28;20024;-46
2021/09/07 02:27:22;;;;;;;16.25;11.20;;;14.20;99.90;;;;;;5054260;28;20114;-46
2021/09/07 02:29:48;;;;;;;15.55;11.50;;;14.20;99.90;;;;;;5060156;28;20012;-46
2021/09/07 02:32:13;;;;;;;21.98;12.93;;;14.20;99.90;;;;;;5065647;28;20399;-46
2021/09/07 02:34:39;;;;;;;17.17;11.20;;;14.20;99.90;;;;;;5049814;28;20098;-46
2021/09/07 02:37:05;;;;;;;17.50;10.65;;;14.20;99.90;;;;;;5049034;28;20400;-45
2021/09/07 02:39:31;;;;;;;17.05;11.70;;;14.20;99.90;;;;;;5049700;28;20021;-46
2021/09/07 02:41:56;;;;;;;17.80;12.05;;;14.20;99.90;;;;;;5049239;28;20123;-45
2021/09/07 02:44:22;;;;;;;20.13;12.07;;;14.20;99.90;;;;;;5036697;28;20138;-46
2021/09/07 02:46:49;;;;;;;20.90;13.02;;;14.20;99.90;;;;;;5052974;28;20378;-46
2021/09/07 02:49:14;;;;;;;19.17;12.60;;;14.20;99.90;;;;;;5049521;28;20029;-46
2021/09/07 02:51:43;;;;;;;18.20;13.18;;;14.20;99.90;;;;;;5048240;28;20024;-46
2021/09/07 02:54:09;;;;;;;22.90;13.35;;;14.20;99.90;;;;;;5048740;28;20059;-46
2021/09/07 02:56:34;;;;;;;17.83;12.27;;;14.20;99.90;;;;;;5047110;28;20132;-46
2021/09/07 02:58:59;;;;;;;17.23;12.57;;;14.20;99.90;;;;;;5048158;28;20029;-46
2021/09/07 03:01:25;;;;;;;18.65;12.65;;;14.20;99.90;;;;;;5045652;28;20108;-46
2021/09/07 03:03:50;;;;;;;16.00;11.30;;;14.20;99.90;;;;;;5055407;28;20033;-46
2021/09/07 03:06:16;;;;;;;19.67;13.05;;;14.20;99.90;;;;;;5043197;28;20457;-46
2021/09/07 03:08:42;;;;;;;18.60;11.45;;;14.20;99.90;;;;;;5052695;28;20028;-46
2021/09/07 03:11:07;;;;;;;19.52;12.30;;;14.20;99.90;;;;;;5069188;28;20031;-46
2021/09/07 03:13:33;;;;;;;19.48;13.13;;;14.20;99.90;;;;;;5065333;28;20040;-47
2021/09/07 03:15:58;;;;;;;18.48;11.55;;;14.20;99.90;;;;;;5049040;28;20078;-46
2021/09/07 03:18:24;;;;;;;20.77;13.20;;;14.20;99.90;;;;;;5048285;28;20453;-46
2021/09/07 03:20:49;;;;;;;18.52;12.27;;;14.30;99.90;;;;;;5048961;28;20033;-46
2021/09/07 03:23:15;;;;;;;20.17;12.63;;;14.30;99.90;;;;;;5047426;28;20052;-46
2021/09/07 03:25:41;;;;;;;22.25;13.27;;;14.30;99.90;;;;;;5031107;28;20076;-46
2021/09/07 03:28:07;;;;;;;19.15;12.73;;;14.30;99.90;;;;;;5046273;28;20027;-46
2021/09/07 03:30:33;;;;;;;20.55;13.63;;;14.30;99.90;;;;;;5063878;28;20036;-46
2021/09/07 03:32:59;;;;;;;20.40;13.20;;;14.30;99.90;;;;;;5056311;28;20033;-46
2021/09/07 03:35:24;;;;;;;21.20;13.40;;;14.30;99.90;;;;;;5059821;28;20398;-48
2021/09/07 03:37:50;;;;;;;20.77;12.95;;;14.40;99.90;;;;;;5067944;28;20103;-46
2021/09/07 03:40:16;;;;;;;19.00;12.93;;;14.40;99.90;;;;;;5068632;28;20032;-46
2021/09/07 03:42:42;;;;;;;22.15;15.32;;;14.40;99.90;;;;;;5068774;28;20417;-46
2021/09/07 03:45:11;;;;;;;23.25;14.80;;;14.40;99.90;;;;;;5059951;28;20242;-46
2021/09/07 03:47:37;;;;;;;22.50;13.70;;;14.30;99.90;;;;;;5047940;28;20025;-46
2021/09/07 03:50:03;;;;;;;24.00;14.15;;;14.30;99.90;;;;;;5047504;28;20486;-46
2021/09/07 03:52:29;;;;;;;21.83;14.27;;;14.40;99.90;;;;;;5048539;28;20079;-46
2021/09/07 03:54:56;;;;;;;18.73;13.88;;;14.40;99.90;;;;;;5048015;28;20029;-46
2021/09/07 03:57:41;;;;;;;20.90;14.25;;;14.40;99.90;;;;;;5040743;28;20108;-46
2021/09/07 04:00:08;;;;;;;19.70;13.15;;;14.40;99.90;;;;;;5006419;28;20061;-47
2021/09/07 04:02:33;;;;;;;20.05;13.45;;;14.40;99.90;;;;;;5005932;28;20114;-46
2021/09/07 04:04:59;;;;;;;23.00;16.05;;;14.30;99.90;;;;;;5051220;28;20084;-46
2021/09/07 04:07:24;;;;;;;23.60;15.48;;;14.40;99.90;;;;;;5039414;28;20032;-46
2021/09/07 04:09:50;;;;;;;20.67;14.48;;;14.40;99.90;;;;;;5055384;28;20426;-46
2021/09/07 04:12:15;;;;;;;23.13;15.30;;;14.30;99.90;;;;;;5047641;28;20025;-46
2021/09/07 04:14:40;;;;;;;21.10;14.25;;;14.30;99.90;;;;;;5048515;28;20075;-47
2021/09/07 04:17:06;;;;;;;21.45;14.07;;;14.30;99.90;;;;;;5046274;28;20033;-47
2021/09/07 04:19:32;;;;;;;18.90;13.10;;;14.30;99.90;;;;;;5048214;28;20032;-47
2021/09/07 04:21:58;;;;;;;19.48;13.45;;;14.30;99.90;;;;;;5051945;28;20029;-47
2021/09/07 04:24:23;;;;;;;18.55;12.57;;;14.20;99.90;;;;;;5031151;28;20032;-46
2021/09/07 04:26:49;;;;;;;20.83;13.18;;;14.20;99.90;;;;;;5031735;28;20069;-46
2021/09/07 04:29:15;;;;;;;17.33;12.15;;;14.20;99.90;;;;;;5031499;28;20198;-45
2021/09/07 04:31:42;;;;;;;17.85;12.90;;;14.20;99.90;;;;;;5056922;28;20263;-47
2021/09/07 04:34:08;;;;;;;20.60;13.77;;;14.20;99.90;;;;;;5055914;28;20031;-46
2021/09/07 04:36:33;;;;;;;19.70;13.38;;;14.20;99.90;;;;;;5051611;28;20036;-46
2021/09/07 04:38:59;;;;;;;19.63;13.50;;;14.20;99.90;;;;;;5050731;28;20439;-46
2021/09/07 04:41:24;;;;;;;22.45;14.57;;;14.20;99.90;;;;;;5050008;28;20034;-46
2021/09/07 04:43:50;;;;;;;23.17;14.18;;;14.20;99.90;;;;;;5062900;28;20033;-46
2021/09/07 04:46:16;;;;;;;22.85;14.93;;;14.20;99.90;;;;;;5071708;28;20029;-46
2021/09/07 04:48:42;;;;;;;22.00;14.63;;;14.20;99.90;;;;;;5071208;28;20127;-46
2021/09/07 04:51:08;;;;;;;20.45;13.55;;;14.20;99.90;;;;;;5071369;28;20099;-47
2021/09/07 04:53:33;;;;;;;20.48;13.40;;;14.20;99.90;;;;;;5064237;28;20049;-47
2021/09/07 04:55:59;;;;;;;18.60;12.68;;;14.20;99.90;;;;;;5051005;28;20502;-47
2021/09/07 04:58:24;;;;;;;22.90;14.00;;;14.20;99.90;;;;;;5049516;28;20035;-47
2021/09/07 05:00:50;;;;;;;19.92;13.65;;;14.20;99.90;;;;;;5049875;28;20025;-46
2021/09/07 05:03:15;;;;;;;22.48;15.07;;;14.20;99.90;;;;;;5065248;28;20032;-46
2021/09/07 05:05:41;;;;;;;22.50;14.90;;;14.30;99.90;;;;;;5050959;28;20029;-49
2021/09/07 05:08:06;;;;;;;23.95;14.88;;;14.30;99.90;;;;;;5059725;28;20032;-46
2021/09/07 05:10:32;;;;;;;22.58;14.38;;;14.30;99.90;;;;;;5067935;28;20588;-46
2021/09/07 05:12:57;;;;;;;21.95;14.63;;;14.40;99.90;;;;;;5072358;28;20048;-46
2021/09/07 05:15:23;;;;;;;25.60;13.63;;;14.40;99.90;;;;;;5054689;28;20513;-46
2021/09/07 05:17:49;;;;;;;20.90;15.02;;;14.50;99.90;;;;;;5049548;28;20025;-46
2021/09/07 05:20:15;;;;;;;22.27;15.52;;;14.50;99.90;;;;;;5049324;28;20483;-46
2021/09/07 05:22:40;;;;;;;22.38;15.10;;;14.50;99.90;;;;;;5040149;28;20061;-46
2021/09/07 05:25:06;;;;;;;24.45;16.63;;;14.50;99.90;;;;;;5052088;28;20051;-46
2021/09/07 05:27:33;;;;;;;23.00;15.55;;;14.60;99.90;;;;;;5055379;28;20037;-46
2021/09/07 05:29:59;;;;;;;24.90;15.05;;;14.60;99.90;;;;;;5058509;28;20359;-46
2021/09/07 05:32:24;;;;;;;22.88;13.82;;;14.70;99.90;;;;;;5047323;28;20028;-46
2021/09/07 05:34:50;;;;;;;25.88;16.23;;;14.70;99.90;;;;;;5053475;28;20472;-47
2021/09/07 05:37:15;;;;;;;20.63;15.00;;;14.70;99.90;;;;;;5052663;28;20025;-46
2021/09/07 05:39:41;;;;;;;22.48;16.27;;;14.70;99.90;;;;;;5067313;28;20044;-46
2021/09/07 05:42:07;;;;;;;23.13;15.32;;;14.80;99.90;;;;;;5071016;28;20494;-47
2021/09/07 05:44:32;;;;;;;26.70;16.38;;;14.80;99.90;;;;;;5056234;28;20026;-47
2021/09/07 05:46:59;;;;;;;20.98;14.75;;;14.90;99.90;;;;;;5057837;28;20399;-50
2021/09/07 05:49:25;;;;;;;20.08;14.02;;;14.90;99.90;;;;;;5062170;28;20629;-47
2021/09/07 05:51:50;;;;;;;22.42;14.65;;;15.00;99.90;;;;;;5062603;28;20020;-47
2021/09/07 05:54:16;;;;;;;21.55;14.32;;;15.10;99.90;;;;;;5068545;28;20497;-47
2021/09/07 05:56:41;;;;;;;28.35;15.85;;;15.10;99.90;;;;;;5062812;28;20039;-46
2021/09/07 05:59:07;;;;;;;29.08;16.90;;;15.10;99.90;;;;;;5070598;28;20028;-46
2021/09/07 06:01:33;;;;;;;22.65;15.80;;;15.20;99.90;;;;;;5042646;28;20139;-48
2021/09/07 06:04:00;;;;;;;20.88;15.38;;;15.20;99.90;;;;;;5039540;28;20025;-47
2021/09/07 06:06:25;;;;;;;25.35;15.45;;;15.20;99.90;;;;;;5040842;28;20049;-47
2021/09/07 06:08:51;;;;;;;21.88;14.75;;;15.20;99.90;;;;;;5050434;28;20107;-46
2021/09/07 06:11:16;;;;;;;24.00;15.43;;;15.20;99.90;;;;;;5069334;28;20024;-47
2021/09/07 06:13:42;;;;;;;25.77;16.02;;;15.20;99.90;;;;;;5000412;28;1154479;-47
2021/09/07 06:16:07;;;;;;;37.83;21.80;;;15.20;99.90;;;;;;5031105;28;20738;-49
2021/09/07 06:18:33;;;;;;;26.20;17.02;;;15.20;99.90;;;;;;5045150;28;20040;-48
2021/09/07 06:20:58;;;;;;;26.40;17.13;;;15.20;99.90;;;;;;5063271;28;20047;-49
2021/09/07 06:23:24;;;;;;;22.45;14.55;;;15.20;99.90;;;;;;5070121;28;20027;-46
2021/09/07 06:25:50;;;;;;;27.38;17.23;;;15.30;99.90;;;;;;5059368;28;20493;-47
2021/09/07 06:28:15;;;;;;;27.08;17.23;;;15.30;99.90;;;;;;5063014;28;20037;-47
2021/09/07 06:30:42;;;;;;;30.38;18.83;;;15.40;99.90;;;;;;5071254;28;20641;-47
2021/09/07 06:33:07;;;;;;;32.55;18.75;;;15.40;99.90;;;;;;5062389;28;20597;-47
2021/09/07 06:35:33;;;;;;;38.33;23.83;;;15.40;99.90;;;;;;5041916;28;20041;-47
2021/09/07 06:37:58;;;;;;;37.58;23.55;;;15.50;99.90;;;;;;5051459;28;20087;-47
2021/09/07 06:40:24;;;;;;;35.15;20.90;;;15.50;99.90;;;;;;5042546;28;20017;-46
2021/09/07 06:42:50;;;;;;;37.30;21.85;;;15.60;99.90;;;;;;5042418;28;20107;-46
2021/09/07 06:45:16;;;;;;;31.10;18.67;;;15.60;99.90;;;;;;5047536;28;20100;-47
2021/09/07 06:47:41;;;;;;;30.95;19.80;;;15.70;99.90;;;;;;5042725;28;20025;-47
2021/09/07 06:50:07;;;;;;;29.27;19.33;;;15.70;99.90;;;;;;5051927;28;20474;-47
2021/09/07 06:52:33;;;;;;;29.98;18.27;;;15.80;99.90;;;;;;5040995;28;20032;-49
2021/09/07 06:54:59;;;;;;;32.47;19.83;;;15.90;99.90;;;;;;5036309;28;20475;-47
2021/09/07 06:57:27;;;;;;;32.95;19.15;;;16.00;99.90;;;;;;5039613;28;20082;-50
2021/09/07 06:59:54;;;;;;;29.95;17.95;;;16.10;99.90;;;;;;5038788;28;20025;-48
2021/09/07 07:02:20;;;;;;;40.35;19.75;;;16.10;99.90;;;;;;5040757;28;20029;-49
2021/09/07 07:04:45;;;;;;;33.10;20.65;;;16.20;99.90;;;;;;5039912;28;20071;-46
2021/09/07 07:07:12;;;;;;;33.85;22.13;;;16.30;99.90;;;;;;5037325;28;20024;-47
2021/09/07 07:09:37;;;;;;;35.08;22.60;;;16.30;99.90;;;;;;5058678;28;20136;-47
2021/09/07 07:12:03;;;;;;;36.65;22.48;;;16.30;99.90;;;;;;5039251;28;20030;-47
2021/09/07 07:14:29;;;;;;;38.95;22.83;;;16.40;99.90;;;;;;5052274;28;20025;-47
2021/09/07 07:16:54;;;;;;;33.15;21.88;;;16.50;99.90;;;;;;5061258;28;20498;-49
2021/09/07 07:19:20;;;;;;;33.00;19.67;;;16.60;99.90;;;;;;5063650;28;20095;-47
2021/09/07 07:21:47;;;;;;;34.65;22.63;;;16.70;99.90;;;;;;5037311;28;20037;-46
2021/09/07 07:24:14;;;;;;;31.45;19.23;;;16.90;99.90;;;;;;5041629;28;20015;-46
2021/09/07 07:26:40;;;;;;;33.67;20.17;;;17.30;99.90;;;;;;5039467;28;20029;-47
2021/09/07 07:29:06;;;;;;;34.80;20.98;;;17.60;99.90;;;;;;5040623;28;20025;-46
2021/09/07 07:31:32;;;;;;;37.10;20.80;;;17.80;99.90;;;;;;5041306;28;20036;-46
2021/09/07 07:33:57;;;;;;;30.30;17.80;;;17.90;99.90;;;;;;5038605;28;20026;-47
2021/09/07 07:36:23;;;;;;;32.38;19.85;;;18.00;99.90;;;;;;5056846;28;20039;-46
2021/09/07 07:38:48;;;;;;;29.73;18.55;;;18.10;99.90;;;;;;5062015;28;20424;-46
2021/09/07 07:41:14;;;;;;;31.92;19.40;;;18.10;99.90;;;;;;5029717;28;20030;-48
2021/09/07 07:43:44;;;;;;;28.45;18.63;;;18.10;99.90;;;;;;5044550;28;20028;-47
2021/09/07 07:46:10;;;;;;;32.58;20.52;;;18.10;99.90;;;;;;5052940;28;20017;-46
2021/09/07 07:48:36;;;;;;;30.63;19.95;;;18.10;99.90;;;;;;5069441;28;20048;-49
2021/09/07 07:51:02;;;;;;;25.17;17.58;;;18.10;99.90;;;;;;5030315;28;20444;-46
2021/09/07 07:53:27;;;;;;;30.95;18.75;;;18.50;99.90;;;;;;5029669;28;20426;-46
2021/09/07 07:55:53;;;;;;;27.80;16.98;;;18.90;99.90;;;;;;5038289;28;20041;-49
2021/09/07 07:58:18;;;;;;;30.58;16.65;;;19.40;99.90;;;;;;5039359;28;20029;-47
2021/09/07 08:00:46;;;;;;;25.33;16.75;;;19.80;99.90;;;;;;5047628;28;20401;-47
2021/09/07 08:03:12;;;;;;;25.42;15.52;;;20.40;99.90;;;;;;5058763;28;20483;-46
2021/09/07 08:05:38;;;;;;;25.52;17.60;;;20.60;99.90;;;;;;5049391;28;20028;-48
2021/09/07 08:08:04;;;;;;;20.95;14.18;;;20.90;99.90;;;;;;5050231;28;20029;-48
2021/09/07 08:10:29;;;;;;;22.63;15.20;;;21.00;99.90;;;;;;5059483;28;20042;-47
2021/09/07 08:12:55;;;;;;;25.73;14.57;;;21.30;99.90;;;;;;5068950;28;20387;-49
2021/09/07 08:15:20;;;;;;;17.23;10.68;;;21.50;99.90;;;;;;5063679;28;20408;-47
2021/09/07 08:17:46;;;;;;;16.10;11.77;;;21.80;99.90;;;;;;5055560;28;20104;-49
2021/09/07 08:20:11;;;;;;;14.98;11.30;;;22.40;99.90;;;;;;5052692;28;20052;-48
2021/09/07 08:22:37;;;;;;;17.95;11.23;;;23.30;99.10;;;;;;5053021;28;20044;-48
2021/09/07 08:25:02;;;;;;;15.68;9.38;;;24.30;96.00;;;;;;5049727;28;20033;-47
2021/09/07 08:27:28;;;;;;;16.85;10.48;;;25.50;93.10;;;;;;5048065;28;20402;-47
2021/09/07 08:29:53;;;;;;;15.13;10.00;;;26.40;87.90;;;;;;5061151;28;20029;-49
2021/09/07 08:32:19;;;;;;;14.30;9.52;;;27.00;82.90;;;;;;5050902;28;20028;-48
2021/09/07 08:34:45;;;;;;;11.95;8.73;;;27.20;81.90;;;;;;5048706;28;20096;-48
2021/09/07 08:37:10;;;;;;;14.98;9.27;;;27.70;79.20;;;;;;5054096;28;20039;-50
2021/09/07 08:39:36;;;;;;;14.07;8.52;;;28.30;75.70;;;;;;5067780;28;20035;-48
2021/09/07 08:42:01;;;;;;;14.35;9.18;;;28.70;74.50;;;;;;5040658;28;20037;-48
2021/09/07 08:44:28;;;;;;;9.95;7.60;;;29.40;70.70;;;;;;5029128;28;20037;-47
2021/09/07 08:46:54;;;;;;;7.90;6.32;;;29.50;68.70;;;;;;5030459;28;20089;-50
2021/09/07 08:49:20;;;;;;;11.77;6.53;;;29.60;65.30;;;;;;5060253;28;20048;-47
2021/09/07 08:51:46;;;;;;;6.55;4.68;;;29.90;63.80;;;;;;5062731;28;20028;-50
2021/09/07 08:54:12;;;;;;;5.90;4.38;;;30.40;57.70;;;;;;5059675;28;20155;-49
2021/09/07 08:56:37;;;;;;;7.15;4.25;;;30.70;53.60;;;;;;5067429;28;20566;-48
2021/09/07 08:59:05;;;;;;;7.72;5.68;;;30.60;53.20;;;;;;5065697;28;20035;-51
2021/09/07 09:01:38;;;;;;;5.85;4.70;;;31.00;52.10;;;;;;5050098;28;20017;-48
2021/09/07 09:04:04;;;;;;;7.53;5.40;;;30.90;53.90;;;;;;5058593;28;20033;-49
2021/09/07 09:06:29;;;;;;;7.28;5.40;;;30.40;52.10;;;;;;5070052;28;20021;-49
2021/09/07 09:09:04;;;;;;;8.50;5.00;;;30.50;52.30;;;;;;5062560;28;20021;-49
2021/09/07 09:11:48;;;;;;;10.57;5.68;;;30.70;51.50;;;;;;5051864;28;20600;-50
2021/09/07 09:14:32;;;;;;;8.07;6.03;;;30.70;52.40;;;;;;5057437;28;20090;-48
2021/09/07 09:16:58;;;;;;;5.90;5.28;;;30.60;52.60;;;;;;5065724;28;20039;-48
2021/09/07 09:19:23;;;;;;;10.57;6.80;;;30.90;53.10;;;;;;5058807;28;20036;-51
2021/09/07 09:21:49;;;;;;;8.18;6.63;;;31.10;51.70;;;;;;5057254;28;20024;-48
2021/09/07 09:24:19;;;;;;;11.00;6.85;;;31.30;53.40;;;;;;5061440;28;20064;-49
2021/09/07 09:26:52;;;;;;;12.10;6.95;;;31.40;53.90;;;;;;5030936;28;20035;-50
2021/09/07 09:29:30;;;;;;;9.10;6.65;;;31.70;52.70;;;;;;5062620;28;20425;-50
2021/09/07 09:32:02;;;;;;;10.90;7.50;;;31.70;52.60;;;;;;5058907;28;20026;-51
2021/09/07 09:34:28;;;;;;;11.90;8.65;;;31.80;53.00;;;;;;5054643;28;20021;-51
2021/09/07 09:36:59;;;;;;;7.72;6.95;;;32.00;52.10;;;;;;5051537;28;20075;-48
2021/09/07 09:39:42;;;;;;;10.70;6.55;;;32.50;50.90;;;;;;5052241;28;20033;-48
2021/09/07 09:42:09;;;;;;;10.15;7.65;;;33.10;52.40;;;;;;5053252;28;20017;-50
2021/09/07 09:44:35;;;;;;;10.23;7.75;;;33.40;50.80;;;;;;5067030;28;20033;-48
2021/09/07 09:47:01;;;;;;;8.90;6.10;;;33.30;49.30;;;;;;5065355;28;20030;-48
2021/09/07 09:49:28;;;;;;;10.00;7.10;;;33.50;50.90;;;;;;5063622;28;20359;-49
2021/09/07 09:52:03;;;;;;;9.38;7.20;;;33.90;50.60;;;;;;5072061;28;20099;-48
2021/09/07 09:54:30;;;;;;;9.57;7.03;;;34.20;48.50;;;;;;5053436;28;20027;-50
2021/09/07 09:56:57;;;;;;;7.80;7.00;;;34.70;48.30;;;;;;5062991;28;20074;-51
2021/09/07 09:59:23;;;;;;;6.35;5.75;;;34.70;47.40;;;;;;5060906;28;20024;-49
2021/09/07 10:01:49;;;;;;;8.73;6.28;;;34.70;48.90;;;;;;5056924;28;20676;-48
2021/09/07 10:04:15;;;;;;;6.65;5.85;;;35.10;47.00;;;;;;5062453;28;20021;-51
2021/09/07 10:06:42;;;;;;;9.05;5.85;;;35.40;46.70;;;;;;5070686;28;20454;-51
2021/09/07 10:09:08;;;;;;;5.78;4.93;;;35.70;45.60;;;;;;5055968;28;20020;-50
2021/09/07 10:11:35;;;;;;;7.03;5.70;;;35.50;45.30;;;;;;5054224;28;20703;-51
2021/09/07 10:14:03;;;;;;;7.35;5.28;;;35.00;44.20;;;;;;5055559;28;20041;-50
2021/09/07 10:16:51;;;;;;;6.65;5.38;;;34.70;46.20;;;;;;5048354;28;20025;-49
2021/09/07 10:19:43;;;;;;;6.75;5.40;;;34.80;45.30;;;;;;5057603;28;20021;-49
2021/09/07 10:24:54;;;;;;;6.90;5.35;;;34.90;46.00;;;;;;5050492;28;20027;-50
2021/09/07 10:27:21;;;;;;;8.35;5.70;;;34.60;45.30;;;;;;5045752;28;20361;-51
2021/09/07 10:29:47;;;;;;;8.85;5.03;;;34.40;45.30;;;;;;5062557;28;20038;-49
2021/09/07 10:32:25;;;;;;;7.63;5.22;;;34.60;46.50;;;;;;5063168;28;20016;-50
2021/09/07 10:35:11;;;;;;;5.85;5.15;;;34.50;45.80;;;;;;5054432;28;20113;-48
2021/09/07 10:38:07;;;;;;;6.70;5.20;;;34.60;47.10;;;;;;5061699;28;20413;-48
2021/09/07 10:40:40;;;;;;;6.35;4.55;;;34.50;45.50;;;;;;5070808;28;20107;-49
2021/09/07 10:43:06;;;;;;;8.18;5.55;;;34.10;45.70;;;;;;5070086;28;20154;-50
2021/09/07 10:45:31;;;;;;;5.47;4.90;;;33.40;47.20;;;;;;5062844;28;20111;-48
2021/09/07 10:47:58;;;;;;;7.38;5.22;;;33.60;45.90;;;;;;5055604;28;20021;-48
2021/09/07 10:50:56;;;;;;;5.43;4.93;;;33.60;47.30;;;;;;5063863;28;20021;-49
2021/09/07 10:53:22;;;;;;;5.85;5.18;;;33.40;46.90;;;;;;5065185;28;20021;-50
2021/09/07 10:55:48;;;;;;;6.20;4.72;;;33.40;48.30;;;;;;5052169;28;20506;-48
2021/09/07 10:58:32;;;;;;;7.40;5.18;;;33.30;47.70;;;;;;5048762;28;20029;-50
2021/09/07 11:01:27;;;;;;;6.30;5.38;;;33.90;47.40;;;;;;5049405;28;20044;-48
2021/09/07 11:04:31;;;;;;;5.47;4.88;;;34.20;47.50;;;;;;5056869;28;20052;-50
2021/09/07 11:06:57;;;;;;;4.93;4.43;;;34.10;45.00;;;;;;5047667;28;20093;-48
2021/09/07 11:09:51;;;;;;;6.47;5.15;;;33.60;46.60;;;;;;5058676;28;20028;-48
2021/09/07 11:12:33;;;;;;;10.32;5.93;;;32.40;46.80;;;;;;5030141;28;20025;-50
2021/09/07 11:15:26;;;;;;;5.88;5.22;;;32.00;47.90;;;;;;5030623;28;20042;-48
2021/09/07 11:17:55;;;;;;;7.65;4.93;;;31.60;46.70;;;;;;5046119;28;20386;-50
2021/09/07 11:20:25;;;;;;;5.80;4.63;;;31.40;50.20;;;;;;5053439;28;20022;-50
2021/09/07 11:22:52;;;;;;;7.97;5.32;;;31.60;49.90;;;;;;5055942;28;20498;-49
2021/09/07 11:25:20;;;;;;;5.60;5.10;;;31.70;52.00;;;;;;5069115;28;20040;-50
2021/09/07 11:28:01;;;;;;;5.75;5.05;;;32.00;50.20;;;;;;5050171;28;20021;-50
2021/09/07 11:30:30;;;;;;;6.25;4.50;;;32.50;48.80;;;;;;5052471;28;20470;-49
2021/09/07 11:33:07;;;;;;;8.17;4.97;;;32.90;49.90;;;;;;5053001;28;20467;-48
2021/09/07 11:35:42;;;;;;;5.82;4.95;;;32.80;46.70;;;;;;5061515;28;20020;-48
2021/09/07 11:38:10;;;;;;;5.32;4.78;;;32.70;47.20;;;;;;5051268;28;20036;-48
2021/09/07 11:40:44;;;;;;;5.18;4.68;;;31.50;48.00;;;;;;5050291;28;20036;-50
2021/09/07 11:43:11;;;;;;;6.03;5.22;;;31.20;49.70;;;;;;5050163;28;20017;-47
2021/09/07 11:45:37;;;;;;;6.38;4.78;;;31.20;51.80;;;;;;5045742;28;20476;-47
2021/09/07 11:48:04;;;;;;;6.50;4.32;;;31.20;52.00;;;;;;5058199;28;20036;-47
2021/09/07 11:50:36;;;;;;;9.02;5.07;;;31.20;51.30;;;;;;5063138;28;20383;-48
2021/09/07 11:53:05;;;;;;;6.68;5.70;;;31.00;50.40;;;;;;5068841;28;20032;-48
2021/09/07 11:55:43;;;;;;;6.93;5.05;;;31.20;49.30;;;;;;5070007;28;20024;-48
2021/09/07 11:58:21;;;;;;;5.00;4.32;;;30.60;51.00;;;;;;5056332;28;20029;-48
2021/09/07 12:00:58;;;;;;;5.65;4.65;;;30.70;51.60;;;;;;5049932;28;20107;-47
2021/09/07 12:03:36;;;;;;;6.07;5.25;;;30.90;50.50;;;;;;5054474;28;20437;-48
2021/09/07 12:06:02;;;;;;;6.10;4.05;;;30.70;51.50;;;;;;5068533;28;20013;-51
2021/09/07 12:08:54;;;;;;;6.75;4.80;;;31.10;51.20;;;;;;5060577;28;20092;-48
2021/09/07 12:11:27;;;;;;;5.78;4.97;;;31.10;50.40;;;;;;5057999;28;20036;-47
2021/09/07 12:14:04;;;;;;;5.45;4.32;;;31.30;53.40;;;;;;5069699;28;20078;-48
2021/09/07 12:16:30;;;;;;;6.32;5.18;;;31.50;51.40;;;;;;5039194;28;20375;-47
2021/09/07 12:18:56;;;;;;;5.63;4.53;;;31.30;51.70;;;;;;5060797;28;20032;-48
2021/09/07 12:21:22;;;;;;;5.03;4.30;;;31.10;51.50;;;;;;5069333;28;20089;-47
2021/09/07 12:23:49;;;;;;;6.53;5.25;;;30.90;50.90;;;;;;5053650;28;20021;-49
2021/09/07 12:26:16;;;;;;;5.63;4.78;;;31.00;53.00;;;;;;5063503;28;20103;-47
2021/09/07 12:28:42;;;;;;;5.53;4.97;;;30.90;54.80;;;;;;5047996;28;20032;-49
2021/09/07 12:31:17;;;;;;;5.82;4.68;;;30.90;55.20;;;;;;5049623;28;20021;-49
2021/09/07 12:33:49;;;;;;;8.85;5.38;;;30.60;53.20;;;;;;5044914;28;20024;-49
2021/09/07 12:36:23;;;;;;;6.68;5.32;;;30.50;53.30;;;;;;5039570;28;20025;-50
2021/09/07 12:38:50;;;;;;;7.88;4.72;;;30.10;52.50;;;;;;5047355;28;20025;-49